Wetterdaten: Woche 10.10.22 - 16.10.22 (KW41)
Datum Zeit Temp. Aussen Temp. o. S. Temp +5cm Feuchte Auss Luftdruck Regen Sonnenschein Regendauer Solar Windben Empfang
10.10.2022 00:00 9,9 C 9,0 C 5,7 C 80 % 1016,7 hPa 0,0 l/m 0,00 h 0,00 h 0 W/m 5,5 km/h (1 Bft) 96,10 %
10.10.2022 01:00 9,3 C 8,3 C 5,1 C 82 % 1016,3 hPa 0,0 l/m 0,00 h 0,00 h 0 W/m 6,8 km/h (2 Bft) 97,51 %
10.10.2022 02:00 9,0 C 8,2 C 5,0 C 84 % 1016,0 hPa 0,0 l/m 0,00 h 0,00 h 0 W/m 9,3 km/h (2 Bft) 98,71 %
10.10.2022 03:00 8,6 C 7,8 C 4,5 C 85 % 1015,6 hPa 0,0 l/m 0,00 h 0,00 h 0 W/m 8,8 km/h (2 Bft) 96,66 %
10.10.2022 04:00 8,4 C 7,8 C 4,4 C 87 % 1015,2 hPa 0,0 l/m 0,00 h 0,00 h 0 W/m 9,8 km/h (2 Bft) 98,14 %
10.10.2022 05:00 8,3 C 7,8 C 4,4 C 87 % 1014,8 hPa 0,0 l/m 0,00 h 0,00 h 0 W/m 11,1 km/h (2 Bft) 96,60 %
10.10.2022 06:00 8,3 C 7,6 C 4,4 C 88 % 1014,7 hPa 0,0 l/m 0,00 h 0,00 h 0 W/m 13,4 km/h (3 Bft) 97,28 %
10.10.2022 07:00 7,8 C 7,1 C 3,9 C 90 % 1014,7 hPa 0,0 l/m 0,00 h 0,00 h 6 W/m 11,1 km/h (2 Bft) 95,24 %
10.10.2022 08:00 7,8 C 7,3 C 4,1 C 91 % 1014,8 hPa 0,0 l/m 0,00 h 0,00 h 34 W/m 9,1 km/h (2 Bft) 98,08 %
10.10.2022 09:00 9,0 C 8,9 C 5,4 C 92 % 1015,0 hPa 0,0 l/m 0,00 h 0,00 h 48 W/m 9,4 km/h (2 Bft) 98,01 %
10.10.2022 10:00 10,9 C 11,3 C 7,3 C 90 % 1015,3 hPa 0,0 l/m 0,00 h 0,00 h 52 W/m 9,3 km/h (2 Bft) 97,52 %
10.10.2022 11:00 14,1 C 17,3 C 11,7 C 83 % 1015,5 hPa 0,0 l/m 0,53 h 0,00 h 231 W/m 8,9 km/h (2 Bft) 96,56 %
10.10.2022 12:00 16,4 C 17,0 C 12,6 C 78 % 1015,6 hPa 0,0 l/m 0,10 h 0,00 h 167 W/m 11,8 km/h (2 Bft) 97,54 %
10.10.2022 13:00 17,7 C 17,8 C 13,1 C 75 % 1015,7 hPa 0,0 l/m 0,00 h 0,00 h 222 W/m 14,0 km/h (3 Bft) 97,44 %
10.10.2022 14:00 18,3 C 18,5 C 13,6 C 73 % 1015,6 hPa 0,0 l/m 0,73 h 0,00 h 314 W/m 13,6 km/h (3 Bft) 98,44 %
10.10.2022 15:00 18,7 C 18,4 C 13,8 C 72 % 1015,8 hPa 0,0 l/m 0,73 h 0,00 h 276 W/m 9,4 km/h (2 Bft) 94,73 %
10.10.2022 16:00 18,0 C 17,1 C 12,9 C 74 % 1016,5 hPa 0,0 l/m 0,00 h 0,17 h 77 W/m 7,0 km/h (2 Bft) 99,38 %
10.10.2022 17:00 17,0 C 16,2 C 12,1 C 78 % 1017,3 hPa 0,0 l/m 0,00 h 0,00 h 54 W/m 10,1 km/h (2 Bft) 96,45 %
10.10.2022 18:00 16,2 C 15,1 C 11,3 C 83 % 1018,5 hPa 0,0 l/m 0,00 h 0,00 h 18 W/m 15,1 km/h (3 Bft) 97,54 %
10.10.2022 19:00 14,4 C 13,4 C 10,0 C 88 % 1019,9 hPa 0,0 l/m 0,00 h 0,00 h 0 W/m 20,7 km/h (4 Bft) 97,25 %
10.10.2022 20:00 13,2 C 12,7 C 8,9 C 88 % 1021,2 hPa 0,0 l/m 0,00 h 0,00 h 0 W/m 13,6 km/h (3 Bft) 95,06 %
10.10.2022 21:00 12,7 C 11,7 C 8,1 C 88 % 1022,1 hPa 0,0 l/m 0,00 h 0,00 h 0 W/m 6,7 km/h (2 Bft) 96,73 %
10.10.2022 22:00 11,3 C 9,5 C 6,1 C 89 % 1023,0 hPa 0,0 l/m 0,00 h 0,00 h 0 W/m 0,0 km/h (0 Bft) 99,06 %
10.10.2022 23:00 9,9 C 8,3 C 5,1 C 91 % 1023,7 hPa 0,0 l/m 0,00 h 0,00 h 0 W/m 0,0 km/h (0 Bft) 95,49 %
11.10.2022 00:00 9,1 C 7,8 C 4,8 C 93 % 1024,1 hPa 0,0 l/m 0,00 h 0,00 h 0 W/m 0,0 km/h (0 Bft) 94,29 %
11.10.2022 01:00 8,6 C 7,4 C 4,4 C 95 % 1024,5 hPa 0,0 l/m 0,00 h 0,00 h 0 W/m 0,0 km/h (0 Bft) 97,79 %
11.10.2022 02:00 8,3 C 7,1 C 4,3 C 95 % 1024,8 hPa 0,0 l/m 0,00 h 0,00 h 0 W/m 0,6 km/h (0 Bft) 98,82 %
11.10.2022 03:00 7,6 C 6,5 C 3,7 C 96 % 1025,1 hPa 0,0 l/m 0,00 h 0,00 h 0 W/m 0,1 km/h (0 Bft) 96,08 %
11.10.2022 04:00 6,9 C 5,8 C 3,1 C 96 % 1025,2 hPa 0,0 l/m 0,00 h 0,00 h 0 W/m 0,0 km/h (0 Bft) 97,31 %
11.10.2022 05:00 6,3 C 5,4 C 2,7 C 96 % 1025,6 hPa 0,0 l/m 0,00 h 0,00 h 0 W/m 0,0 km/h (0 Bft) 96,06 %
11.10.2022 06:00 5,7 C 4,6 C 2,2 C 96 % 1026,0 hPa 0,0 l/m 0,00 h 0,00 h 0 W/m 0,0 km/h (0 Bft) 98,74 %
11.10.2022 07:00 4,9 C 3,9 C 1,7 C 96 % 1026,3 hPa 0,0 l/m 0,00 h 0,00 h 5 W/m 0,0 km/h (0 Bft) 95,81 %
11.10.2022 08:00 4,9 C 4,7 C 2,0 C 96 % 1026,9 hPa 0,0 l/m 0,00 h 0,00 h 23 W/m 0,0 km/h (0 Bft) 95,21 %
11.10.2022 09:00 6,1 C 6,8 C 3,8 C 97 % 1027,5 hPa 0,0 l/m 0,00 h 0,00 h 49 W/m 0,6 km/h (0 Bft) 98,22 %
11.10.2022 10:00 8,2 C 9,2 C 5,7 C 98 % 1027,7 hPa 0,0 l/m 0,00 h 0,00 h 67 W/m 4,2 km/h (1 Bft) 97,44 %
11.10.2022 11:00 10,3 C 14,9 C 10,0 C 97 % 1028,0 hPa 0,0 l/m 0,60 h 0,00 h 310 W/m 6,3 km/h (2 Bft) 97,36 %
11.10.2022 12:00 11,9 C 12,8 C 9,2 C 90 % 1028,0 hPa 0,0 l/m 0,00 h 0,00 h 89 W/m 8,2 km/h (2 Bft) 98,48 %
11.10.2022 13:00 12,7 C 12,9 C 9,1 C 85 % 1027,8 hPa 0,0 l/m 0,27 h 0,00 h 176 W/m 7,3 km/h (2 Bft) 97,26 %
11.10.2022 14:00 14,4 C 15,1 C 9,9 C 77 % 1027,3 hPa 0,0 l/m 1,00 h 0,00 h 527 W/m 7,5 km/h (2 Bft) 97,64 %
11.10.2022 15:00 15,2 C 14,8 C 10,3 C 70 % 1026,9 hPa 0,0 l/m 1,00 h 0,00 h 487 W/m 6,3 km/h (2 Bft) 98,07 %
11.10.2022 16:00 15,3 C 15,2 C 10,2 C 69 % 1026,6 hPa 0,0 l/m 1,00 h 0,00 h 326 W/m 4,9 km/h (1 Bft) 97,33 %
11.10.2022 17:00 14,6 C 13,4 C 9,0 C 70 % 1026,3 hPa 0,0 l/m 0,20 h 0,00 h 79 W/m 3,3 km/h (1 Bft) 97,97 %
11.10.2022 18:00 13,7 C 11,1 C 6,9 C 74 % 1026,2 hPa 0,0 l/m 0,00 h 0,00 h 18 W/m 0,0 km/h (0 Bft) 96,57 %
11.10.2022 19:00 11,9 C 8,9 C 5,3 C 79 % 1026,2 hPa 0,0 l/m 0,00 h 0,00 h 0 W/m 0,0 km/h (0 Bft) 96,46 %
11.10.2022 20:00 10,0 C 7,7 C 4,3 C 85 % 1026,2 hPa 0,0 l/m 0,00 h 0,00 h 0 W/m 0,0 km/h (0 Bft) 98,22 %
11.10.2022 21:00 8,7 C 6,9 C 3,7 C 88 % 1026,1 hPa 0,0 l/m 0,00 h 0,00 h 0 W/m 0,0 km/h (0 Bft) 96,52 %
11.10.2022 22:00 7,7 C 6,2 C 3,2 C 91 % 1026,0 hPa 0,0 l/m 0,00 h 0,00 h 0 W/m 0,0 km/h (0 Bft) 97,01 %
11.10.2022 23:00 6,9 C 5,6 C 2,8 C 92 % 1025,9 hPa 0,0 l/m 0,00 h 0,00 h 0 W/m 0,0 km/h (0 Bft) 97,93 %
12.10.2022 00:00 6,2 C 5,0 C 2,2 C 93 % 1025,9 hPa 0,0 l/m 0,00 h 0,00 h 0 W/m 0,0 km/h (0 Bft) 98,27 %
12.10.2022 01:00 5,7 C 4,6 C 2,0 C 94 % 1025,7 hPa 0,0 l/m 0,00 h 0,00 h 0 W/m 0,0 km/h (0 Bft) 96,83 %
12.10.2022 02:00 5,0 C 3,9 C 1,7 C 94 % 1025,7 hPa 0,0 l/m 0,00 h 0,00 h 0 W/m 0,0 km/h (0 Bft) 95,97 %
12.10.2022 03:00 4,6 C 3,9 C 1,2 C 94 % 1025,5 hPa 0,0 l/m 0,00 h 0,00 h 0 W/m 0,0 km/h (0 Bft) 97,72 %
12.10.2022 04:00 4,8 C 4,4 C 1,7 C 95 % 1025,2 hPa 0,0 l/m 0,00 h 0,00 h 0 W/m 2,2 km/h (1 Bft) 95,73 %
12.10.2022 05:00 5,4 C 4,6 C 2,2 C 96 % 1024,8 hPa 0,0 l/m 0,00 h 0,00 h 0 W/m 2,2 km/h (1 Bft) 99,50 %
12.10.2022 06:00 5,4 C 4,8 C 2,2 C 96 % 1024,6 hPa 0,0 l/m 0,00 h 0,00 h 0 W/m 1,7 km/h (1 Bft) 94,82 %
12.10.2022 07:00 5,0 C 4,0 C 1,6 C 96 % 1024,5 hPa 0,0 l/m 0,00 h 0,00 h 4 W/m 0,0 km/h (0 Bft) 98,65 %
12.10.2022 08:00 4,6 C 4,2 C 1,7 C 96 % 1024,7 hPa 0,0 l/m 0,00 h 0,00 h 27 W/m 0,5 km/h (0 Bft) 95,33 %
12.10.2022 09:00 6,0 C 6,5 C 3,5 C 97 % 1024,6 hPa 0,2 l/m 0,00 h 0,00 h 76 W/m 5,3 km/h (1 Bft) 96,77 %
12.10.2022 10:00 7,8 C 8,9 C 5,4 C 97 % 1024,5 hPa 0,0 l/m 0,00 h 0,00 h 129 W/m 8,3 km/h (2 Bft) 98,21 %
12.10.2022 11:00 9,8 C 12,2 C 8,2 C 90 % 1024,6 hPa 0,0 l/m 0,43 h 0,00 h 259 W/m 8,4 km/h (2 Bft) 96,27 %
12.10.2022 12:00 11,5 C 12,3 C 8,4 C 83 % 1024,4 hPa 0,0 l/m 0,03 h 0,00 h 108 W/m 9,2 km/h (2 Bft) 98,23 %
12.10.2022 13:00 13,2 C 13,7 C 9,4 C 79 % 1024,0 hPa 0,0 l/m 0,27 h 0,00 h 210 W/m 10,4 km/h (2 Bft) 97,15 %
12.10.2022 14:00 15,4 C 16,1 C 10,9 C 70 % 1023,3 hPa 0,0 l/m 1,00 h 0,00 h 422 W/m 12,1 km/h (2 Bft) 98,36 %
12.10.2022 15:00 15,8 C 15,8 C 11,0 C 70 % 1022,7 hPa 0,0 l/m 0,87 h 0,00 h 288 W/m 11,1 km/h (2 Bft) 96,73 %
12.10.2022 16:00 15,7 C 15,6 C 10,8 C 72 % 1022,2 hPa 0,0 l/m 1,00 h 0,00 h 226 W/m 8,7 km/h (2 Bft) 98,79 %
12.10.2022 17:00 15,5 C 14,6 C 10,1 C 74 % 1021,8 hPa 0,0 l/m 0,20 h 0,00 h 79 W/m 5,6 km/h (1 Bft) 95,88 %
12.10.2022 18:00 14,6 C 12,8 C 8,4 C 78 % 1021,4 hPa 0,0 l/m 0,00 h 0,00 h 19 W/m 0,3 km/h (0 Bft) 98,55 %
12.10.2022 19:00 13,2 C 11,0 C 6,9 C 83 % 1021,8 hPa 0,0 l/m 0,00 h 0,00 h 0 W/m 0,0 km/h (0 Bft) 97,94 %
12.10.2022 20:00 11,7 C 9,4 C 5,6 C 86 % 1021,8 hPa 0,0 l/m 0,00 h 0,00 h 0 W/m 0,0 km/h (0 Bft) 94,93 %
12.10.2022 21:00 10,4 C 9,0 C 5,5 C 90 % 1021,5 hPa 0,0 l/m 0,00 h 0,00 h 0 W/m 0,9 km/h (0 Bft) 96,58 %
12.10.2022 22:00 9,7 C 8,1 C 4,5 C 91 % 1021,4 hPa 0,0 l/m 0,00 h 0,00 h 0 W/m 0,0 km/h (0 Bft) 100,00 %
12.10.2022 23:00 9,0 C 7,9 C 4,4 C 92 % 1021,3 hPa 0,0 l/m 0,00 h 0,00 h 0 W/m 1,1 km/h (0 Bft) 94,99 %
13.10.2022 00:00 9,4 C 9,0 C 5,7 C 94 % 1021,1 hPa 0,0 l/m 0,00 h 0,00 h 0 W/m 3,3 km/h (1 Bft) 97,44 %
13.10.2022 01:00 9,6 C 8,9 C 5,9 C 93 % 1020,9 hPa 0,0 l/m 0,00 h 0,00 h 0 W/m 3,5 km/h (1 Bft) 97,99 %
13.10.2022 02:00 9,6 C 8,9 C 5,8 C 93 % 1020,6 hPa 0,0 l/m 0,00 h 0,00 h 0 W/m 3,1 km/h (1 Bft) 96,24 %
13.10.2022 03:00 9,6 C 8,9 C 6,0 C 94 % 1020,2 hPa 0,0 l/m 0,00 h 0,00 h 0 W/m 3,6 km/h (1 Bft) 97,43 %
13.10.2022 04:00 9,6 C 8,9 C 6,1 C 94 % 1019,8 hPa 0,0 l/m 0,00 h 0,00 h 0 W/m 3,1 km/h (1 Bft) 97,16 %
13.10.2022 05:00 9,6 C 8,9 C 6,1 C 95 % 1019,5 hPa 0,0 l/m 0,00 h 0,00 h 0 W/m 0,0 km/h (0 Bft) 99,64 %
13.10.2022 06:00 9,6 C 8,9 C 6,1 C 96 % 1019,1 hPa 0,0 l/m 0,00 h 0,00 h 0 W/m 3,1 km/h (1 Bft) 94,57 %
13.10.2022 07:00 9,7 C 8,9 C 6,1 C 96 % 1018,8 hPa 0,0 l/m 0,00 h 0,00 h 0 W/m 6,2 km/h (2 Bft) 99,43 %
13.10.2022 08:00 9,7 C 9,1 C 6,3 C 96 % 1018,5 hPa 0,0 l/m 0,00 h 0,00 h 26 W/m 6,8 km/h (2 Bft) 98,01 %
13.10.2022 09:00 10,3 C 10,4 C 7,2 C 96 % 1018,5 hPa 0,0 l/m 0,00 h 0,00 h 87 W/m 4,3 km/h (1 Bft) 96,66 %
13.10.2022 10:00 11,4 C 11,7 C 8,3 C 96 % 1018,6 hPa 0,0 l/m 0,00 h 0,00 h 112 W/m 6,1 km/h (2 Bft) 98,40 %
13.10.2022 11:00 12,9 C 13,4 C 9,7 C 93 % 1018,2 hPa 0,0 l/m 0,00 h 0,00 h 150 W/m 6,5 km/h (2 Bft) 96,35 %
13.10.2022 12:00 14,7 C 15,3 C 11,1 C 88 % 1017,8 hPa 0,0 l/m 0,00 h 0,00 h 181 W/m 7,1 km/h (2 Bft) 96,28 %
13.10.2022 13:00 15,5 C 14,8 C 10,3 C 84 % 1017,5 hPa 0,2 l/m 0,00 h 0,73 h 96 W/m 12,7 km/h (3 Bft) 99,42 %
13.10.2022 14:00 15,0 C 14,7 C 9,8 C 89 % 1017,1 hPa 0,0 l/m 0,00 h 0,20 h 134 W/m 6,3 km/h (2 Bft) 95,65 %
13.10.2022 15:00 15,5 C 14,8 C 10,5 C 89 % 1016,8 hPa 0,2 l/m 0,00 h 0,23 h 63 W/m 5,3 km/h (1 Bft) 98,44 %
13.10.2022 16:00 15,1 C 14,2 C 9,9 C 91 % 1016,5 hPa 0,4 l/m 0,00 h 0,73 h 74 W/m 5,4 km/h (1 Bft) 98,35 %
13.10.2022 17:00 14,6 C 13,8 C 9,4 C 93 % 1016,1 hPa 0,2 l/m 0,00 h 0,37 h 25 W/m 6,2 km/h (2 Bft) 96,29 %
13.10.2022 18:00 14,0 C 12,9 C 9,4 C 95 % 1016,2 hPa 0,8 l/m 0,00 h 0,27 h 0 W/m 7,8 km/h (2 Bft) 98,05 %
13.10.2022 19:00 13,6 C 12,8 C 9,4 C 96 % 1016,2 hPa 0,0 l/m 0,00 h 0,00 h 0 W/m 4,5 km/h (1 Bft) 99,08 %
13.10.2022 20:00 13,4 C 12,6 C 9,4 C 97 % 1016,5 hPa 0,0 l/m 0,00 h 0,03 h 0 W/m 2,9 km/h (1 Bft) 95,03 %
13.10.2022 21:00 13,0 C 12,2 C 9,1 C 97 % 1016,6 hPa 0,2 l/m 0,00 h 0,17 h 0 W/m 7,1 km/h (2 Bft) 99,02 %
13.10.2022 22:00 12,5 C 11,7 C 8,8 C 97 % 1016,8 hPa 0,0 l/m 0,00 h 0,00 h 0 W/m 6,9 km/h (2 Bft) 97,54 %
13.10.2022 23:00 12,4 C 11,7 C 8,6 C 97 % 1016,8 hPa 0,0 l/m 0,00 h 0,00 h 0 W/m 7,9 km/h (2 Bft) 96,23 %
14.10.2022 00:00 12,5 C 11,7 C 8,9 C 97 % 1016,7 hPa 0,0 l/m 0,00 h 0,00 h 0 W/m 4,6 km/h (1 Bft) 98,47 %
14.10.2022 01:00 12,6 C 11,7 C 8,9 C 97 % 1016,4 hPa 0,0 l/m 0,00 h 0,00 h 0 W/m 4,1 km/h (1 Bft) 97,09 %
14.10.2022 02:00 12,6 C 11,7 C 8,9 C 98 % 1016,0 hPa 0,2 l/m 0,00 h 0,00 h 0 W/m 2,8 km/h (1 Bft) 97,32 %
14.10.2022 03:00 12,6 C 11,7 C 8,9 C 98 % 1015,6 hPa 0,2 l/m 0,00 h 0,17 h 0 W/m 2,8 km/h (1 Bft) 96,87 %
14.10.2022 04:00 12,6 C 11,7 C 9,2 C 98 % 1015,1 hPa 0,2 l/m 0,00 h 0,00 h 0 W/m 3,4 km/h (1 Bft) 99,61 %
14.10.2022 05:00 12,5 C 11,7 C 9,0 C 99 % 1014,7 hPa 0,2 l/m 0,00 h 0,17 h 0 W/m 4,4 km/h (1 Bft) 94,54 %
14.10.2022 06:00 12,5 C 11,7 C 9,4 C 99 % 1014,4 hPa 0,2 l/m 0,00 h 0,07 h 0 W/m 3,8 km/h (1 Bft) 98,17 %
14.10.2022 07:00 12,5 C 11,7 C 9,4 C 99 % 1014,0 hPa 0,2 l/m 0,00 h 0,00 h 7 W/m 4,3 km/h (1 Bft) 96,39 %
14.10.2022 08:00 12,6 C 12,1 C 9,4 C 99 % 1013,6 hPa 0,2 l/m 0,00 h 0,10 h 15 W/m 5,0 km/h (1 Bft) 96,16 %
14.10.2022 09:00 12,8 C 12,3 C 9,7 C 100 % 1013,3 hPa 0,0 l/m 0,00 h 0,07 h 45 W/m 6,9 km/h (2 Bft) 97,65 %
14.10.2022 10:00 13,3 C 13,1 C 10,3 C 100 % 1013,0 hPa 0,0 l/m 0,00 h 0,00 h 90 W/m 7,8 km/h (2 Bft) 98,51 %
14.10.2022 11:00 13,7 C 13,7 C 10,7 C 100 % 1012,6 hPa 0,0 l/m 0,00 h 0,00 h 100 W/m 9,4 km/h (2 Bft) 95,38 %
14.10.2022 12:00 14,3 C 14,2 C 11,1 C 99 % 1012,2 hPa 0,0 l/m 0,00 h 0,03 h 99 W/m 11,2 km/h (2 Bft) 99,41 %
14.10.2022 13:00 14,5 C 13,9 C 11,1 C 99 % 1011,7 hPa 1,6 l/m 0,00 h 0,57 h 81 W/m 7,7 km/h (2 Bft) 96,56 %
14.10.2022 14:00 14,8 C 14,2 C 11,5 C 99 % 1011,1 hPa 0,0 l/m 0,00 h 0,03 h 91 W/m 8,1 km/h (2 Bft) 97,08 %
14.10.2022 15:00 15,0 C 14,4 C 11,7 C 99 % 1010,4 hPa 0,2 l/m 0,00 h 0,00 h 50 W/m 6,7 km/h (2 Bft) 98,36 %
14.10.2022 16:00 15,2 C 14,8 C 12,0 C 99 % 1009,9 hPa 0,0 l/m 0,00 h 0,00 h 66 W/m 6,6 km/h (2 Bft) 95,93 %
14.10.2022 17:00 15,4 C 14,9 C 12,2 C 99 % 1009,5 hPa 0,0 l/m 0,00 h 0,00 h 42 W/m 5,5 km/h (1 Bft) 97,22 %
14.10.2022 18:00 15,1 C 14,3 C 11,8 C 99 % 1009,2 hPa 0,0 l/m 0,00 h 0,00 h 12 W/m 3,4 km/h (1 Bft) 99,11 %
14.10.2022 19:00 14,6 C 13,6 C 11,3 C 99 % 1009,2 hPa 0,0 l/m 0,00 h 0,00 h 0 W/m 1,7 km/h (1 Bft) 94,95 %
14.10.2022 20:00 14,2 C 13,2 C 10,9 C 99 % 1009,1 hPa 0,0 l/m 0,00 h 0,00 h 0 W/m 0,4 km/h (0 Bft) 99,08 %
14.10.2022 21:00 14,2 C 13,3 C 11,1 C 99 % 1008,8 hPa 0,0 l/m 0,00 h 0,00 h 0 W/m 2,9 km/h (1 Bft) 97,94 %
14.10.2022 22:00 13,9 C 13,0 C 10,8 C 99 % 1008,5 hPa 0,0 l/m 0,00 h 0,00 h 0 W/m 0,4 km/h (0 Bft) 95,58 %
14.10.2022 23:00 13,4 C 12,3 C 10,2 C 99 % 1008,3 hPa 0,0 l/m 0,00 h 0,00 h 0 W/m 0,2 km/h (0 Bft) 98,66 %
15.10.2022 00:00 13,3 C 12,2 C 10,6 C 99 % 1008,3 hPa 0,0 l/m 0,00 h 0,00 h 0 W/m 0,1 km/h (0 Bft) 94,87 %
15.10.2022 01:00 13,2 C 12,2 C 10,5 C 99 % 1008,1 hPa 0,0 l/m 0,00 h 0,00 h 0 W/m 0,1 km/h (0 Bft) 97,29 %
15.10.2022 02:00 12,8 C 11,9 C 9,8 C 99 % 1007,9 hPa 0,0 l/m 0,00 h 0,00 h 0 W/m 0,2 km/h (0 Bft) 97,42 %
15.10.2022 03:00 12,2 C 11,4 C 9,3 C 99 % 1008,0 hPa 0,0 l/m 0,00 h 0,00 h 0 W/m 0,5 km/h (0 Bft) 98,79 %
15.10.2022 04:00 12,4 C 11,7 C 9,8 C 100 % 1007,8 hPa 0,0 l/m 0,00 h 0,00 h 0 W/m 0,0 km/h (0 Bft) 96,51 %
15.10.2022 05:00 12,7 C 12,0 C 10,1 C 100 % 1007,4 hPa 0,0 l/m 0,00 h 0,00 h 0 W/m 1,9 km/h (1 Bft) 97,94 %
15.10.2022 06:00 12,6 C 11,8 C 10,0 C 100 % 1007,5 hPa 0,0 l/m 0,00 h 0,00 h 0 W/m 3,9 km/h (1 Bft) 97,78 %
15.10.2022 07:00 12,3 C 11,7 C 10,0 C 100 % 1007,3 hPa 0,0 l/m 0,00 h 0,00 h 0 W/m 3,0 km/h (1 Bft) 94,66 %
15.10.2022 08:00 12,1 C 11,4 C 9,6 C 100 % 1007,6 hPa 0,0 l/m 0,00 h 0,00 h 21 W/m 2,7 km/h (1 Bft) 97,38 %
15.10.2022 09:00 12,6 C 12,6 C 10,4 C 100 % 1007,5 hPa 0,0 l/m 0,00 h 0,00 h 69 W/m 6,0 km/h (2 Bft) 98,65 %
15.10.2022 10:00 13,6 C 14,0 C 11,2 C 100 % 1007,3 hPa 0,0 l/m 0,17 h 0,00 h 124 W/m 7,6 km/h (2 Bft) 94,58 %
15.10.2022 11:00 14,6 C 15,4 C 11,9 C 100 % 1006,9 hPa 0,0 l/m 0,17 h 0,00 h 168 W/m 12,8 km/h (3 Bft) 99,58 %
15.10.2022 12:00 15,5 C 15,2 C 12,3 C 97 % 1006,6 hPa 0,2 l/m 0,00 h 0,17 h 151 W/m 12,6 km/h (3 Bft) 97,48 %
15.10.2022 13:00 16,1 C 16,0 C 13,2 C 98 % 1006,3 hPa 0,0 l/m 0,00 h 0,00 h 139 W/m 9,8 km/h (2 Bft) 96,88 %
15.10.2022 14:00 17,0 C 17,0 C 14,1 C 98 % 1005,9 hPa 0,0 l/m 0,00 h 0,07 h 111 W/m 10,2 km/h (2 Bft) 98,01 %
15.10.2022 15:00 17,9 C 17,7 C 14,6 C 95 % 1005,8 hPa 0,0 l/m 0,00 h 0,07 h 114 W/m 11,4 km/h (2 Bft) 97,70 %
15.10.2022 16:00 17,8 C 17,0 C 14,0 C 93 % 1006,0 hPa 1,0 l/m 0,00 h 0,33 h 66 W/m 13,2 km/h (3 Bft) 96,20 %
15.10.2022 17:00 17,2 C 16,6 C 13,3 C 96 % 1006,6 hPa 0,0 l/m 0,23 h 0,00 h 68 W/m 10,1 km/h (2 Bft) 99,08 %
15.10.2022 18:00 16,7 C 15,8 C 12,9 C 96 % 1007,4 hPa 0,0 l/m 0,07 h 0,00 h 15 W/m 6,5 km/h (2 Bft) 94,83 %
15.10.2022 19:00 16,1 C 15,2 C 12,5 C 97 % 1008,6 hPa 0,0 l/m 0,00 h 0,00 h 0 W/m 5,8 km/h (2 Bft) 98,15 %
15.10.2022 20:00 15,2 C 14,1 C 11,5 C 96 % 1009,3 hPa 0,0 l/m 0,00 h 0,00 h 0 W/m 10,4 km/h (2 Bft) 98,58 %
15.10.2022 21:00 14,6 C 13,9 C 11,1 C 96 % 1009,8 hPa 0,0 l/m 0,00 h 0,00 h 0 W/m 6,1 km/h (2 Bft) 95,31 %
15.10.2022 22:00 14,3 C 13,3 C 10,6 C 96 % 1010,3 hPa 0,0 l/m 0,00 h 0,00 h 0 W/m 4,6 km/h (1 Bft) 98,86 %
15.10.2022 23:00 13,9 C 12,8 C 10,6 C 96 % 1010,9 hPa 0,0 l/m 0,00 h 0,00 h 0 W/m 5,5 km/h (1 Bft) 98,16 %
16.10.2022 00:00 13,5 C 12,8 C 10,3 C 97 % 1011,1 hPa 0,0 l/m 0,00 h 0,00 h 0 W/m 3,2 km/h (1 Bft) 96,77 %
16.10.2022 01:00 13,2 C 12,3 C 10,4 C 97 % 1011,3 hPa 0,0 l/m 0,00 h 0,00 h 0 W/m 4,1 km/h (1 Bft) 97,28 %
16.10.2022 02:00 13,1 C 12,2 C 10,3 C 97 % 1011,4 hPa 0,0 l/m 0,00 h 0,00 h 0 W/m 6,2 km/h (2 Bft) 97,94 %
16.10.2022 03:00 12,8 C 12,2 C 10,0 C 97 % 1011,4 hPa 0,0 l/m 0,00 h 0,00 h 0 W/m 3,1 km/h (1 Bft) 96,94 %
16.10.2022 04:00 12,8 C 12,2 C 10,3 C 97 % 1011,6 hPa 0,0 l/m 0,00 h 0,00 h 0 W/m 5,2 km/h (1 Bft) 94,84 %
16.10.2022 05:00 12,8 C 12,2 C 10,1 C 96 % 1011,7 hPa 0,0 l/m 0,00 h 0,00 h 0 W/m 5,9 km/h (2 Bft) 98,29 %
16.10.2022 06:00 12,5 C 11,7 C 9,7 C 95 % 1012,2 hPa 0,0 l/m 0,00 h 0,00 h 0 W/m 5,5 km/h (1 Bft) 97,14 %
16.10.2022 07:00 12,3 C 11,7 C 9,4 C 95 % 1012,8 hPa 0,0 l/m 0,00 h 0,00 h 0 W/m 3,5 km/h (1 Bft) 96,73 %
16.10.2022 08:00 12,2 C 11,7 C 9,4 C 96 % 1013,5 hPa 0,0 l/m 0,00 h 0,00 h 17 W/m 5,3 km/h (1 Bft) 98,57 %
16.10.2022 09:00 12,4 C 12,0 C 9,6 C 97 % 1014,5 hPa 0,2 l/m 0,00 h 0,00 h 21 W/m 7,8 km/h (2 Bft) 97,13 %
16.10.2022 10:00 14,0 C 14,2 C 11,4 C 96 % 1015,3 hPa 0,0 l/m 0,13 h 0,00 h 89 W/m 15,3 km/h (3 Bft) 96,96 %
16.10.2022 11:00 16,5 C 21,4 C 15,1 C 87 % 1015,9 hPa 0,0 l/m 0,57 h 0,00 h 262 W/m 14,3 km/h (3 Bft) 98,47 %
16.10.2022 12:00 17,7 C 17,8 C 14,1 C 80 % 1016,1 hPa 0,0 l/m 0,07 h 0,00 h 89 W/m 11,9 km/h (2 Bft) 94,28 %
16.10.2022 13:00 18,1 C 18,0 C 13,9 C 78 % 1016,4 hPa 0,0 l/m 0,07 h 0,00 h 132 W/m 9,7 km/h (2 Bft) 99,06 %
16.10.2022 14:00 19,0 C 19,6 C 14,4 C 74 % 1016,5 hPa 0,0 l/m 0,70 h 0,00 h 401 W/m 11,2 km/h (2 Bft) 98,07 %
16.10.2022 15:00 19,0 C 18,9 C 14,2 C 72 % 1016,6 hPa 0,0 l/m 0,67 h 0,00 h 228 W/m 10,9 km/h (2 Bft) 95,65 %
16.10.2022 16:00 19,0 C 18,3 C 13,5 C 74 % 1016,7 hPa 0,0 l/m 0,13 h 0,03 h 94 W/m 2,3 km/h (1 Bft) 99,44 %
16.10.2022 17:00 18,5 C 16,9 C 12,7 C 78 % 1016,5 hPa 0,0 l/m 0,00 h 0,13 h 34 W/m 1,1 km/h (0 Bft) 96,70 %
16.10.2022 18:00 17,4 C 15,3 C 11,6 C 85 % 1016,4 hPa 0,0 l/m 0,00 h 0,00 h 11 W/m 0,0 km/h (0 Bft) 97,38 %
16.10.2022 19:00 16,2 C 14,4 C 11,1 C 88 % 1016,8 hPa 0,0 l/m 0,00 h 0,00 h 0 W/m 1,1 km/h (0 Bft) 98,36 %
16.10.2022 20:00 15,6 C 14,4 C 11,1 C 91 % 1017,1 hPa 0,4 l/m 0,00 h 0,27 h 0 W/m 1,0 km/h (0 Bft) 96,59 %
16.10.2022 21:00 15,7 C 14,3 C 11,1 C 94 % 1017,7 hPa 0,6 l/m 0,00 h 0,27 h 0 W/m 1,1 km/h (0 Bft) 96,92 %
16.10.2022 22:00 15,6 C 14,4 C 11,1 C 95 % 1017,6 hPa 0,0 l/m 0,00 h 0,00 h 0 W/m 3,3 km/h (1 Bft) 98,65 %
16.10.2022 23:00 15,6 C 14,7 C 11,1 C 96 % 1017,4 hPa 0,0 l/m 0,00 h 0,00 h 0 W/m 4,1 km/h (1 Bft) 95,41 %
Min-Datum _ 12.10.22 12.10.22 12.10.22 12.10.22 15.10.22 - - - - 10.10.22 12.10.22
_ Min-Zeit 04:16 07:50 03:02 14:52 15:58 - - - - 21:48 20:06
Minimum _ 4,4 C 3,3 C 1,1 C 67 % 1005,6 hPa - - - - 0,0 km/h (0 Bft) 46,15 %
Max-Datum _ 16.10.22 16.10.22 16.10.22 14.10.22 11.10.22 14.10.22 10.10.22 13.10.22 10.10.22 10.10.22 10.10.22
_ Max-Zeit 14:52 11:38 11:46 08:52 12:08 13:08 12:08 18:08 14:42 19:44 00:02
Maximum _ 19,4 C 26,1 C 19,4 C 100 % 1028,1 hPa 1,6 l/m 0,07 h 0,07 h 648 W/m 35,4 km/h
N-NW (5 Bft)
100,00 %
Durchschnitt _ 12,4 C 11,8 C 8,6 C 91 % 1017,1 hPa #7,8 l/m #12:56 h #5:26 h 120 W/m 5,3 km/h (1 Bft) 97,26 %
© 2022 W. Hausmann